Time;durP1;ratioP1;P1;durP2;ratioP2;P2;SDS_P1;SDS_P2;PMS_P1;PMS_P2;Temp;Humidity;BMP_temperature;BMP_pressure;BME280_temperature;BME280_humidity;BME280_pressure;Samples;Min_cycle;Max_cycle;Signal;HPM_P1;HPM_P2
2021/03/17 00:00:48;;;;;;;12.52;2.63;;;;;;;16.23;43.98;102422.72;4921547;28;124861;-67
2021/03/17 00:03:32;;;;;;;8.13;2.22;;;;;;;16.20;43.99;102437.81;4915079;28;124408;-67
2021/03/17 00:06:17;;;;;;;14.10;2.53;;;;;;;16.23;44.04;102440.38;4919109;28;109950;-68
2021/03/17 00:09:02;;;;;;;12.25;3.20;;;;;;;16.24;44.17;102447.41;4894928;28;109724;-66
2021/03/17 00:11:47;;;;;;;14.63;2.33;;;;;;;16.24;44.04;102450.06;4909856;28;124947;-67
2021/03/17 00:14:32;;;;;;;13.10;3.03;;;;;;;16.25;43.89;102457.97;4910988;28;124574;-67
2021/03/17 00:17:16;;;;;;;9.77;2.65;;;;;;;16.23;44.31;102464.22;4917480;28;109983;-67
2021/03/17 00:20:02;;;;;;;7.40;2.35;;;;;;;16.23;43.89;102466.88;4930980;28;109846;-70
2021/03/17 00:22:46;;;;;;;8.30;2.40;;;;;;;16.24;43.95;102485.38;4931888;28;125260;-67
2021/03/17 00:25:39;;;;;;;16.13;2.42;;;;;;;16.25;44.13;102489.78;4916803;28;124839;-67
2021/03/17 00:28:24;;;;;;;13.25;2.95;;;;;;;16.24;43.97;102493.31;4911159;28;110768;-67
2021/03/17 00:31:08;;;;;;;12.05;2.55;;;;;;;16.21;43.97;102497.81;4914105;28;110579;-67
2021/03/17 00:33:53;;;;;;;7.38;1.83;;;;;;;16.25;44.28;102520.69;4922896;28;124670;-66
2021/03/17 00:36:37;;;;;;;8.45;2.42;;;;;;;16.25;44.00;102528.63;4912735;28;124593;-68
2021/03/17 00:39:22;;;;;;;10.23;2.30;;;;;;;16.27;43.89;102550.66;4912383;28;110019;-67
2021/03/17 00:42:06;;;;;;;8.45;2.47;;;;;;;16.25;43.95;102561.28;4896893;28;109678;-71
2021/03/17 00:44:51;;;;;;;10.13;2.58;;;;;;;16.24;44.08;102566.63;4906018;28;125166;-69
2021/03/17 00:47:36;;;;;;;10.15;3.05;;;;;;;16.23;43.94;102570.19;4912745;28;124715;-68
2021/03/17 00:50:05;;;;;;;10.10;2.60;;;;;;;16.25;44.52;102578.97;4912925;28;109813;-70
2021/03/17 00:52:31;;;;;;;8.18;2.53;;;;;;;16.24;44.23;102588.69;4914103;28;109102;-67
2021/03/17 00:55:09;;;;;;;13.55;2.50;;;;;;;16.21;44.35;102591.41;4911899;28;125113;-68
2021/03/17 00:58:00;;;;;;;8.05;2.00;;;;;;;16.23;44.41;102589.59;4908303;28;124679;-67
2021/03/17 01:00:26;;;;;;;9.15;2.42;;;;;;;16.22;44.27;102600.22;4919845;28;109478;-69
2021/03/17 01:02:52;;;;;;;4.72;1.98;;;;;;;16.20;44.33;102605.56;4914669;28;109112;-67
2021/03/17 01:05:19;;;;;;;5.15;1.90;;;;;;;16.21;44.32;102614.38;4912329;28;124257;-67
2021/03/17 01:07:45;;;;;;;9.00;2.50;;;;;;;16.21;44.33;102603.78;4909980;28;124213;-67
2021/03/17 01:10:21;;;;;;;9.70;2.63;;;;;;;16.22;44.45;102616.13;4912483;28;109773;-67
2021/03/17 01:12:47;;;;;;;5.60;1.60;;;;;;;16.21;44.28;102614.38;4912686;28;109200;-69
2021/03/17 01:15:17;;;;;;;7.32;2.17;;;;;;;16.21;44.49;102619.69;4915748;28;124037;-67
2021/03/17 01:17:43;;;;;;;7.32;2.40;;;;;;;16.20;44.44;102618.81;4916755;28;124132;-68
2021/03/17 01:20:09;;;;;;;6.45;2.72;;;;;;;16.21;44.40;102619.69;4913652;28;109432;-69
2021/03/17 01:22:36;;;;;;;6.18;2.13;;;;;;;16.20;44.47;102626.75;4917736;28;110094;-69
2021/03/17 01:25:04;;;;;;;4.63;2.42;;;;;;;16.19;44.45;102634.69;4916218;28;123948;-67
2021/03/17 01:27:30;;;;;;;5.18;2.22;;;;;;;16.22;44.28;102653.22;4912545;28;124424;-67
2021/03/17 01:29:56;;;;;;;7.05;2.22;;;;;;;16.20;44.52;102655.03;4910476;28;109601;-67
2021/03/17 01:32:22;;;;;;;4.47;1.80;;;;;;;16.20;44.67;102668.28;4922409;28;109836;-67
2021/03/17 01:34:48;;;;;;;6.53;2.33;;;;;;;16.19;44.53;102670.00;4916105;28;124732;-69
2021/03/17 01:37:14;;;;;;;5.47;2.53;;;;;;;16.18;44.64;102678.88;4913341;28;123918;-69
2021/03/17 01:39:40;;;;;;;3.55;1.98;;;;;;;16.18;44.61;102675.34;4932593;28;109168;-66
2021/03/17 01:42:06;;;;;;;5.72;2.50;;;;;;;16.18;44.53;102683.28;4914148;28;108880;-67
2021/03/17 01:44:32;;;;;;;5.03;2.28;;;;;;;16.18;44.45;102688.59;4910451;28;123697;-67
2021/03/17 01:46:59;;;;;;;4.53;1.98;;;;;;;16.17;44.64;102695.66;4907993;28;124960;-68
2021/03/17 01:49:25;;;;;;;3.25;1.98;;;;;;;16.15;44.38;102691.28;4915198;28;109157;-66
2021/03/17 01:51:51;;;;;;;6.75;2.33;;;;;;;16.14;44.44;102701.03;4908581;28;108777;-65
2021/03/17 01:54:17;;;;;;;2.90;1.77;;;;;;;16.16;44.39;102703.63;4919786;28;124009;-66
2021/03/17 01:56:43;;;;;;;4.03;1.90;;;;;;;16.15;44.28;102705.41;4921631;28;123963;-69
2021/03/17 01:59:09;;;;;;;5.18;2.25;;;;;;;16.14;44.39;102706.31;4906805;28;109362;-66
2021/03/17 02:01:36;;;;;;;4.43;2.08;;;;;;;16.13;44.00;102699.28;4902906;28;108505;-66
2021/03/17 02:04:03;;;;;;;2.85;1.95;;;;;;;16.15;44.19;102712.50;4925988;28;124950;-67
2021/03/17 02:06:29;;;;;;;4.45;1.40;;;;;;;16.13;44.26;102709.00;4915039;28;123849;-66
2021/03/17 02:08:56;;;;;;;4.50;1.98;;;;;;;16.14;44.46;102708.97;4916643;28;110296;-66
2021/03/17 02:11:23;;;;;;;2.58;1.60;;;;;;;16.14;44.28;102716.91;4949578;23;110145;-68
2021/03/17 02:14:03;;;;;;;3.45;1.67;;;;;;;16.14;44.25;102718.69;4916666;28;123708;-68
2021/03/17 02:16:47;;;;;;;4.30;1.73;;;;;;;16.15;44.21;102725.72;4942693;28;124533;-67
2021/03/17 02:22:17;;;;;;;3.53;1.52;;;;;;;16.15;43.97;102731.03;4919147;28;98240;-69
2021/03/17 02:25:01;;;;;;;2.28;1.35;;;;;;;16.14;44.28;102732.81;4922335;28;124956;-67
2021/03/17 02:27:53;;;;;;;5.10;1.42;;;;;;;16.13;44.13;102717.81;4909869;28;124585;-67
2021/03/17 02:30:40;;;;;;;3.25;1.50;;;;;;;16.14;44.10;102716.03;4905358;28;108710;-67
2021/03/17 02:33:47;;;;;;;3.05;1.55;;;;;;;16.14;44.44;102716.03;4895889;28;109392;-65
2021/03/17 02:36:19;;;;;;;2.80;1.38;;;;;;;16.14;44.24;102697.50;4883853;28;124902;-66
2021/03/17 02:38:51;;;;;;;2.05;1.30;;;;;;;16.13;44.26;102703.69;4902723;28;123849;-67
2021/03/17 02:41:26;;;;;;;4.32;1.23;;;;;;;16.13;44.14;102714.28;4911430;28;109745;-67
2021/03/17 02:43:57;;;;;;;2.40;1.40;;;;;;;16.13;44.18;102714.28;4906486;28;109172;-68
2021/03/17 02:46:26;;;;;;;3.22;1.42;;;;;;;16.13;44.13;102706.34;4921870;28;124090;-69
2021/03/17 02:49:09;;;;;;;3.65;1.17;;;;;;;16.12;44.33;102712.53;4929504;28;123975;-69
2021/03/17 02:51:43;;;;;;;2.20;1.13;;;;;;;16.12;44.22;102710.78;4920313;28;110159;-67
2021/03/17 02:54:11;;;;;;;2.22;1.25;;;;;;;16.11;44.28;102713.44;4914458;28;108978;-68
2021/03/17 02:56:48;;;;;;;1.58;1.13;;;;;;;16.12;44.20;102724.03;4911351;28;124478;-72
2021/03/17 02:59:18;;;;;;;2.97;1.42;;;;;;;16.12;44.21;102731.09;4927751;28;124942;-68
2021/03/17 03:01:48;;;;;;;2.70;1.30;;;;;;;16.15;44.03;102731.03;4931439;28;110203;-69
2021/03/17 03:04:15;;;;;;;1.33;0.95;;;;;;;16.11;44.23;102727.56;4920423;28;109105;-69
2021/03/17 03:06:44;;;;;;;2.88;1.25;;;;;;;16.12;44.51;102718.72;4904992;28;124130;-66
2021/03/17 03:09:11;;;;;;;2.17;1.35;;;;;;;16.12;44.23;102728.44;4893250;28;124285;-69
2021/03/17 03:11:38;;;;;;;2.05;1.30;;;;;;;16.12;44.42;102728.44;4908283;28;109149;-67
2021/03/17 03:14:10;;;;;;;2.88;1.10;;;;;;;16.12;44.11;102731.97;4910287;28;109303;-68
2021/03/17 03:16:37;;;;;;;4.03;1.20;;;;;;;16.14;44.24;102729.28;4907305;28;124101;-67
2021/03/17 03:19:06;;;;;;;2.22;1.13;;;;;;;16.15;44.25;102731.03;4921254;28;124622;-68
2021/03/17 03:21:36;;;;;;;4.82;1.38;;;;;;;16.14;44.13;102739.88;4928872;28;109463;-66
2021/03/17 03:24:03;;;;;;;2.47;1.10;;;;;;;16.12;44.13;102736.38;4906892;28;108839;-67
2021/03/17 03:26:32;;;;;;;4.63;1.10;;;;;;;16.13;44.13;102735.50;4897428;28;125475;-69
2021/03/17 03:28:59;;;;;;;4.28;0.98;;;;;;;16.12;44.08;102731.97;4899380;28;123706;-67
2021/03/17 03:31:26;;;;;;;2.38;1.20;;;;;;;16.11;44.24;102729.34;4910855;28;109216;-71
2021/03/17 03:33:54;;;;;;;1.70;1.15;;;;;;;16.12;44.14;102728.44;4907030;28;109187;-68
2021/03/17 03:36:20;;;;;;;2.03;1.08;;;;;;;16.12;44.15;102731.09;4914730;28;124408;-67
2021/03/17 03:38:46;;;;;;;1.70;1.08;;;;;;;16.14;44.15;102724.00;4907296;23;125129;-67
2021/03/17 03:41:13;;;;;;;4.68;1.23;;;;;;;16.14;44.12;102729.28;4913551;28;109245;-66
2021/03/17 03:43:39;;;;;;;1.75;1.17;;;;;;;16.10;44.04;102732.91;4917906;28;108849;-67
2021/03/17 03:46:05;;;;;;;5.80;1.10;;;;;;;16.11;44.38;102730.22;4917906;28;124521;-67
2021/03/17 03:48:32;;;;;;;2.00;0.93;;;;;;;16.10;44.16;102728.47;4902846;28;124317;-67
2021/03/17 03:50:58;;;;;;;2.70;1.10;;;;;;;16.12;44.31;102728.44;4917510;28;110420;-66
2021/03/17 03:53:33;;;;;;;2.13;1.10;;;;;;;16.10;43.90;102723.19;4911047;28;109990;-70
2021/03/17 03:56:08;;;;;;;2.83;1.17;;;;;;;16.12;43.93;102723.16;4914688;28;124002;-67
2021/03/17 03:58:37;;;;;;;2.60;1.00;;;;;;;16.09;43.69;102731.16;4903640;28;123589;-67
2021/03/17 04:01:08;;;;;;;3.60;1.08;;;;;;;16.11;44.02;102724.03;4901701;28;109100;-64
2021/03/17 04:03:37;;;;;;;3.30;0.90;;;;;;;16.08;43.79;102724.06;4909548;28;108767;-66
2021/03/17 04:06:09;;;;;;;1.63;1.20;;;;;;;16.10;44.20;102717.00;4904770;28;124366;-69
2021/03/17 04:08:43;;;;;;;3.67;1.17;;;;;;;16.09;43.70;102716.13;4920552;28;124278;-69
2021/03/17 04:11:12;;;;;;;2.92;1.40;;;;;;;16.10;43.91;102723.19;4903405;28;109563;-67
2021/03/17 04:13:40;;;;;;;2.80;1.27;;;;;;;16.09;43.80;102737.31;4912483;28;109195;-67
2021/03/17 04:16:07;;;;;;;1.58;1.10;;;;;;;16.08;43.92;102746.13;4908352;28;123818;-66
2021/03/17 04:18:43;;;;;;;2.22;1.10;;;;;;;16.08;43.86;102742.63;4921664;28;124133;-66
2021/03/17 04:21:15;;;;;;;2.10;1.20;;;;;;;16.09;43.90;102747.03;4901191;28;110044;-68
2021/03/17 04:23:43;;;;;;;2.28;1.02;;;;;;;16.08;43.92;102739.97;4951449;22;110745;-66
2021/03/17 04:26:11;;;;;;;1.95;1.10;;;;;;;16.07;43.82;102738.22;4929743;28;124669;-68
2021/03/17 04:28:42;;;;;;;4.20;1.30;;;;;;;16.08;43.47;102747.91;4949531;28;124158;-68
2021/03/17 04:31:10;;;;;;;2.00;1.00;;;;;;;16.08;43.87;102748.78;4944901;28;109134;-69
2021/03/17 04:33:40;;;;;;;1.92;1.08;;;;;;;16.07;43.84;102743.50;5063009;22;108971;-69
2021/03/17 04:36:08;;;;;;;1.45;0.77;;;;;;;16.08;43.77;102747.91;4945742;28;125279;-69
2021/03/17 04:38:35;;;;;;;2.42;0.90;;;;;;;16.08;43.86;102753.22;4960208;28;124299;-68
2021/03/17 04:41:01;;;;;;;2.05;0.93;;;;;;;16.07;43.86;102757.63;4956078;28;110699;-70
2021/03/17 04:43:29;;;;;;;2.60;1.65;;;;;;;16.07;43.80;102749.69;4943981;28;109677;-69
2021/03/17 04:46:00;;;;;;;4.80;1.17;;;;;;;16.07;43.71;102756.75;4951654;28;124560;-68
2021/03/17 04:48:27;;;;;;;2.05;1.30;;;;;;;16.05;43.79;102748.84;4937929;28;124522;-69
2021/03/17 04:50:53;;;;;;;1.52;1.00;;;;;;;16.06;43.86;102745.28;4954181;28;109405;-67
2021/03/17 04:53:19;;;;;;;6.72;1.05;;;;;;;16.06;43.64;102741.78;4953466;28;109173;-69
2021/03/17 04:55:46;;;;;;;2.40;1.08;;;;;;;16.06;43.63;102747.94;4957293;28;124570;-68
2021/03/17 04:58:20;;;;;;;1.40;1.10;;;;;;;16.06;43.66;102758.53;4952954;28;123842;-69
2021/03/17 05:00:48;;;;;;;1.20;0.88;;;;;;;16.07;43.85;102751.47;4938185;28;108099;-68
2021/03/17 05:03:17;;;;;;;2.22;1.00;;;;;;;16.04;43.54;102760.34;4953761;28;108811;-67
2021/03/17 05:05:44;;;;;;;2.28;1.25;;;;;;;16.05;43.67;102759.44;4953018;28;124042;-68
2021/03/17 05:08:15;;;;;;;5.63;1.40;;;;;;;16.04;43.65;102752.38;4940675;28;124398;-68
2021/03/17 05:10:42;;;;;;;1.10;0.90;;;;;;;16.05;43.68;102755.91;4943644;28;109597;-69
2021/03/17 05:13:11;;;;;;;1.55;1.00;;;;;;;16.06;43.69;102765.59;4952176;28;109245;-66
2021/03/17 05:15:39;;;;;;;2.00;1.13;;;;;;;16.04;43.79;102760.34;4935914;28;124116;-68
2021/03/17 05:18:07;;;;;;;2.17;1.23;;;;;;;16.05;43.73;102761.22;4932621;28;128572;-67
2021/03/17 05:20:34;;;;;;;1.42;0.90;;;;;;;16.04;43.67;102762.09;4932893;28;109715;-66
2021/03/17 05:23:01;;;;;;;2.80;1.20;;;;;;;16.07;43.79;102759.41;4933390;28;109268;-67
2021/03/17 05:25:29;;;;;;;1.85;0.98;;;;;;;16.14;43.72;102753.13;4928839;28;124574;-67
2021/03/17 05:28:03;;;;;;;9.95;1.15;;;;;;;16.12;43.95;102746.97;4938735;28;123609;-66
2021/03/17 05:30:32;;;;;;;4.70;1.25;;;;;;;16.12;43.69;102754.94;4929364;28;110141;-67
2021/03/17 05:33:00;;;;;;;3.97;1.10;;;;;;;16.13;43.76;102748.72;4928479;28;109733;-68
2021/03/17 05:35:27;;;;;;;2.13;1.00;;;;;;;16.12;43.52;102746.97;4937656;28;126103;-70
2021/03/17 05:37:55;;;;;;;0.82;0.75;;;;;;;16.11;43.58;102748.75;4945891;28;123883;-69
2021/03/17 05:40:21;;;;;;;1.80;0.80;;;;;;;16.13;43.59;102748.72;4946358;28;110047;-68
2021/03/17 05:42:47;;;;;;;2.75;0.88;;;;;;;16.10;43.70;102746.13;4926788;28;107033;-67
2021/03/17 05:45:17;;;;;;;1.88;0.57;;;;;;;16.10;43.59;102741.72;4944631;28;124648;-68
2021/03/17 05:47:47;;;;;;;3.20;0.80;;;;;;;16.12;43.59;102741.69;4965898;22;122816;-68
2021/03/17 05:50:17;;;;;;;1.13;0.70;;;;;;;16.12;43.58;102741.69;4929154;28;109767;-70
2021/03/17 05:52:44;;;;;;;3.40;0.90;;;;;;;16.15;43.44;102731.03;4926357;28;109334;-71
2021/03/17 05:55:14;;;;;;;2.20;0.85;;;;;;;16.13;43.55;102740.78;4939731;28;124442;-68
2021/03/17 05:57:44;;;;;;;0.75;0.60;;;;;;;16.10;43.56;102739.06;4948563;28;123856;-68
2021/03/17 06:00:20;;;;;;;2.55;0.90;;;;;;;16.11;43.45;102732.88;4916574;28;108841;-69
2021/03/17 06:02:53;;;;;;;1.90;0.80;;;;;;;16.14;43.61;102740.75;4910537;28;109648;-70
2021/03/17 06:05:20;;;;;;;2.33;0.90;;;;;;;16.17;43.42;102729.22;4954222;22;124855;-69
2021/03/17 06:08:06;;;;;;;1.80;0.70;;;;;;;16.14;43.47;102713.38;4933461;28;124215;-75
2021/03/17 06:10:37;;;;;;;1.63;0.50;;;;;;;16.17;43.51;102723.94;4951333;28;109340;-68
2021/03/17 06:13:10;;;;;;;3.78;0.75;;;;;;;16.19;43.35;102733.59;4964598;28;109479;-69
2021/03/17 06:15:51;;;;;;;2.60;0.73;;;;;;;16.20;43.41;102734.50;4957045;28;124225;-70
2021/03/17 06:18:29;;;;;;;1.80;0.70;;;;;;;16.20;43.40;102739.78;4932128;28;121994;-67
2021/03/17 06:20:56;;;;;;;1.60;0.80;;;;;;;16.17;43.37;102748.63;4942535;28;109510;-67
2021/03/17 06:23:22;;;;;;;3.67;0.73;;;;;;;16.15;43.45;102736.31;4939601;28;109810;-66
2021/03/17 06:25:51;;;;;;;2.03;0.90;;;;;;;16.13;43.33;102754.03;4947957;28;124602;-71
2021/03/17 06:28:17;;;;;;;2.20;1.15;;;;;;;16.13;43.28;102743.44;4965423;28;123895;-68
2021/03/17 06:30:45;;;;;;;2.58;0.95;;;;;;;16.13;43.22;102733.72;4962624;28;110058;-67
2021/03/17 06:33:13;;;;;;;0.73;0.52;;;;;;;16.20;42.81;102734.50;4917917;28;109814;-68
2021/03/17 06:35:42;;;;;;;4.07;1.02;;;;;;;16.23;42.63;102734.44;4967124;28;124870;-68
2021/03/17 06:38:26;;;;;;;1.83;0.77;;;;;;;16.20;42.71;102732.72;5004265;22;124275;-68
2021/03/17 06:40:57;;;;;;;;;;;;;;;16.18;42.92;102734.50;4939260;28;108633;-68
2021/03/17 06:43:36;;;;;;;10.02;0.93;;;;;;;16.17;42.84;102738.03;4935034;28;108623;-69
2021/03/17 06:46:04;;;;;;;2.15;0.75;;;;;;;16.15;43.09;102734.56;4953632;23;123887;-68
2021/03/17 06:48:32;;;;;;;3.65;0.70;;;;;;;16.17;42.91;102723.94;4935974;28;123271;-69
2021/03/17 06:51:06;;;;;;;1.80;0.75;;;;;;;16.19;42.79;102743.31;4949366;28;109557;-68
2021/03/17 06:53:48;;;;;;;4.95;1.13;;;;;;;16.19;42.89;102738.88;4931671;28;108874;-69
2021/03/17 06:56:20;;;;;;;4.65;0.77;;;;;;;16.20;42.91;102737.16;4961475;22;127020;-70
2021/03/17 06:58:50;;;;;;;10.82;1.02;;;;;;;16.31;43.41;102727.25;4969524;28;124168;-69
2021/03/17 07:01:28;;;;;;;4.50;0.98;;;;;;;16.24;43.77;102725.59;4964211;28;109192;-69
2021/03/17 07:04:01;;;;;;;5.38;1.00;;;;;;;16.21;44.05;102720.34;4967320;28;108893;-68
2021/03/17 07:06:31;;;;;;;5.95;0.82;;;;;;;16.18;43.44;102731.84;4962606;28;124006;-70
2021/03/17 07:08:59;;;;;;;9.27;0.95;;;;;;;16.15;43.80;102737.19;5070702;22;124052;-68
2021/03/17 07:11:31;;;;;;;6.85;1.08;;;;;;;16.13;43.60;102738.13;4921506;28;109184;-70
2021/03/17 07:14:01;;;;;;;8.75;0.80;;;;;;;16.14;43.83;102742.53;4926047;28;110268;-68
2021/03/17 07:18:54;;;;;;;8.95;1.25;;;;;;;16.13;43.52;102727.53;4948210;28;124175;-73
2021/03/17 07:21:29;;;;;;;8.48;1.00;;;;;;;16.14;43.66;102739.88;4941878;28;109141;-72
2021/03/17 07:23:55;;;;;;;5.72;1.10;;;;;;;16.18;43.47;102737.16;4948939;28;108978;-71
2021/03/17 07:26:25;;;;;;;6.18;1.00;;;;;;;16.18;43.31;102747.75;4941094;28;124349;-71
2021/03/17 07:28:52;;;;;;;5.40;1.20;;;;;;;16.18;43.33;102742.44;4941870;28;123912;-68
2021/03/17 07:31:27;;;;;;;6.93;1.25;;;;;;;16.16;43.38;102743.38;4944634;28;109250;-70
2021/03/17 07:33:53;;;;;;;5.05;0.90;;;;;;;16.18;43.36;102758.34;4940827;28;109365;-68
2021/03/17 07:36:33;;;;;;;13.93;1.65;;;;;;;16.09;43.53;102753.22;4949737;28;124328;-72
2021/03/17 07:39:06;;;;;;;7.55;1.10;;;;;;;16.12;43.60;102763.75;4953362;28;124012;-70
2021/03/17 07:41:33;;;;;;;3.20;1.10;;;;;;;16.12;43.55;102754.94;4954716;28;109394;-72
2021/03/17 07:44:03;;;;;;;6.40;1.48;;;;;;;16.01;43.81;102744.50;4954442;28;109370;-71
2021/03/17 07:46:30;;;;;;;6.40;2.13;;;;;;;16.01;43.74;102734.78;4951659;28;124304;-71
2021/03/17 07:48:57;;;;;;;10.70;2.08;;;;;;;15.97;43.96;102737.53;4967012;28;124786;-69
2021/03/17 07:51:23;;;;;;;12.57;2.28;;;;;;;15.91;43.83;102733.16;4960025;28;110396;-69
2021/03/17 07:53:51;;;;;;;11.60;3.25;;;;;;;15.92;43.96;102748.16;4954117;28;108821;-69
2021/03/17 07:56:21;;;;;;;10.27;2.40;;;;;;;15.92;44.06;102760.53;4951784;28;124808;-67
2021/03/17 07:58:49;;;;;;;18.65;3.17;;;;;;;15.83;44.09;102765.94;4950846;28;125337;-71
2021/03/17 08:01:17;;;;;;;15.43;3.25;;;;;;;15.93;43.86;102770.22;4955330;28;110145;-68
2021/03/17 08:03:46;;;;;;;13.00;2.17;;;;;;;16.00;43.61;102769.25;4942981;28;110419;-70
2021/03/17 08:06:17;;;;;;;12.85;2.35;;;;;;;16.07;43.56;102781.47;4949988;28;123675;-69
2021/03/17 08:08:43;;;;;;;15.68;3.33;;;;;;;16.14;43.52;102769.03;4951039;28;124316;-68
2021/03/17 08:11:15;;;;;;;12.10;2.70;;;;;;;16.28;43.17;102777.63;4953769;28;109246;-68
2021/03/17 08:13:44;;;;;;;11.93;2.08;;;;;;;16.46;42.91;102785.28;4986364;23;108678;-71
2021/03/17 08:16:12;;;;;;;14.95;2.63;;;;;;;16.48;42.65;102798.50;4950205;28;122549;-69
2021/03/17 08:18:41;;;;;;;14.88;2.70;;;;;;;16.30;42.99;102791.69;4938374;28;124625;-70
2021/03/17 08:23:59;;;;;;;10.05;2.33;;;;;;;16.49;42.48;102794.94;5727058;22;98184;-71
2021/03/17 08:29:01;;;;;;;11.32;2.60;;;;;;;16.27;42.90;102797.94;4933511;28;96972;-70
2021/03/17 08:31:36;;;;;;;9.63;1.80;;;;;;;16.19;43.10;102798.94;4925941;28;110368;-70
2021/03/17 08:34:17;;;;;;;10.73;2.33;;;;;;;16.10;43.37;102807.06;4927844;28;108263;-70
2021/03/17 08:36:44;;;;;;;10.30;2.13;;;;;;;16.06;43.50;102807.97;4922817;28;124534;-69
2021/03/17 08:39:10;;;;;;;11.55;2.00;;;;;;;15.93;43.60;102800.22;4919983;28;124260;-68
2021/03/17 08:41:36;;;;;;;11.25;2.60;;;;;;;15.98;43.71;102808.13;4921533;28;109163;-70
2021/03/17 08:44:30;;;;;;;20.05;2.97;;;;;;;16.23;43.24;102798.91;4923616;28;109306;-77
2021/03/17 08:47:11;;;;;;;27.17;2.60;;;;;;;17.16;41.63;102789.31;4911670;28;123076;-70
2021/03/17 08:49:37;;;;;;;17.35;2.33;;;;;;;16.38;43.17;102792.47;4916891;28;124242;-73
2021/03/17 08:52:06;;;;;;;15.95;1.90;;;;;;;16.24;43.48;102797.13;4926634;28;110330;-69
2021/03/17 08:54:32;;;;;;;9.75;1.90;;;;;;;16.26;43.27;102793.53;4923790;28;109644;-69
2021/03/17 08:57:12;;;;;;;11.93;2.08;;;;;;;16.32;43.62;102802.31;4920921;28;124778;-70
2021/03/17 08:59:40;;;;;;;16.73;2.85;;;;;;;16.43;43.49;102801.22;4922587;28;124148;-69
2021/03/17 09:02:24;;;;;;;16.85;3.05;;;;;;;16.67;44.10;102805.22;4929733;28;109104;-68
2021/03/17 09:04:54;;;;;;;34.78;6.60;;;;;;;16.91;43.56;102796.00;4929326;28;109323;-72
2021/03/17 09:07:22;;;;;;;32.67;5.97;;;;;;;16.94;43.37;102800.34;4928681;28;124415;-71
2021/03/17 09:09:53;;;;;;;28.77;5.10;;;;;;;16.93;42.89;102811.88;4916969;28;123792;-70
2021/03/17 09:12:39;;;;;;;17.13;4.18;;;;;;;16.99;42.69;102820.59;4919900;28;109818;-70
2021/03/17 09:15:14;;;;;;;18.67;3.58;;;;;;;17.00;42.54;102817.03;4931244;28;109425;-69
2021/03/17 09:17:48;;;;;;;14.90;2.47;;;;;;;16.85;42.72;102815.53;4925234;28;124590;-70
2021/03/17 09:20:47;;;;;;;9.00;2.35;;;;;;;16.45;43.56;102811.81;4913563;28;123660;-68
2021/03/17 09:23:21;;;;;;;10.93;2.40;;;;;;;16.42;43.40;102815.38;4914802;28;109131;-68
2021/03/17 09:25:51;;;;;;;13.43;2.40;;;;;;;16.31;43.61;102822.63;4911166;28;108821;-69
2021/03/17 09:28:24;;;;;;;9.60;1.83;;;;;;;16.14;43.39;102809.63;4911728;28;124360;-67
2021/03/17 09:30:53;;;;;;;9.73;1.90;;;;;;;16.08;43.65;102820.28;4921196;28;124559;-67
2021/03/17 09:33:25;;;;;;;13.50;1.88;;;;;;;16.11;43.10;102807.03;4933015;28;109657;-68
2021/03/17 09:35:57;;;;;;;8.82;1.50;;;;;;;16.35;42.29;102819.03;4931304;28;109290;-68
2021/03/17 09:38:26;;;;;;;11.43;1.48;;;;;;;16.47;41.95;102823.25;4927156;28;123710;-68
2021/03/17 09:41:09;;;;;;;9.27;1.52;;;;;;;16.79;40.86;102830.69;4917124;28;125019;-67
2021/03/17 09:43:38;;;;;;;4.38;0.93;;;;;;;16.90;40.50;102834.03;4917322;28;110141;-68
2021/03/17 09:46:41;;;;;;;5.45;0.88;;;;;;;16.77;40.62;102827.19;4914411;28;110402;-71
2021/03/17 09:49:20;;;;;;;3.20;0.93;;;;;;;16.70;40.77;102836.16;4872550;28;124062;-68
2021/03/17 09:51:54;;;;;;;2.53;0.98;;;;;;;16.35;41.55;102826.09;4912928;28;124335;-68
2021/03/17 09:54:23;;;;;;;5.60;1.23;;;;;;;16.30;41.47;102826.16;4918904;28;109597;-67
2021/03/17 09:56:55;;;;;;;4.50;1.05;;;;;;;16.25;41.45;102828.88;4935922;28;109132;-68
2021/03/17 09:59:28;;;;;;;3.38;0.70;;;;;;;16.32;41.75;102819.06;4925067;28;123797;-67
2021/03/17 10:02:03;;;;;;;3.27;0.63;;;;;;;16.33;41.68;102836.72;4930796;28;124053;-67
2021/03/17 10:04:34;;;;;;;4.13;0.70;;;;;;;16.16;41.89;102834.31;4934331;28;109710;-70
2021/03/17 10:07:03;;;;;;;4.05;0.80;;;;;;;16.08;41.97;102843.25;4933326;28;108916;-68
2021/03/17 10:09:31;;;;;;;4.95;0.90;;;;;;;16.07;41.92;102836.22;4920264;28;123962;-72
2021/03/17 10:12:07;;;;;;;3.67;0.52;;;;;;;16.06;41.97;102830.03;4930203;28;124099;-70
2021/03/17 10:14:39;;;;;;;3.08;0.60;;;;;;;16.05;41.85;102833.59;4933170;28;109441;-69
2021/03/17 10:17:07;;;;;;;2.92;0.60;;;;;;;16.27;41.35;102837.69;4933507;28;108759;-72
2021/03/17 10:19:34;;;;;;;3.65;0.68;;;;;;;16.27;41.38;102823.56;4933089;28;123949;-67
2021/03/17 10:22:01;;;;;;;5.53;0.90;;;;;;;16.24;41.49;102836.84;4914700;28;124366;-68
2021/03/17 10:24:43;;;;;;;4.55;0.80;;;;;;;16.13;41.67;102849.38;4990836;22;109355;-70
2021/03/17 10:27:12;;;;;;;4.10;0.88;;;;;;;16.07;41.78;102838.88;4951622;28;108761;-74
2021/03/17 10:29:40;;;;;;;2.88;0.65;;;;;;;16.06;41.76;102829.16;4949237;28;124393;-68
2021/03/17 10:32:07;;;;;;;3.65;1.13;;;;;;;16.10;41.60;102838.84;4950635;28;123967;-69
2021/03/17 10:34:34;;;;;;;5.15;0.70;;;;;;;16.08;41.69;102845.91;4951079;28;109047;-71
2021/03/17 10:37:00;;;;;;;2.60;0.50;;;;;;;16.00;41.95;102844.28;4953534;28;110001;-68
2021/03/17 10:39:32;;;;;;;3.05;0.65;;;;;;;15.99;41.97;102837.22;4953883;28;124295;-69
2021/03/17 10:41:59;;;;;;;4.80;0.80;;;;;;;15.99;42.06;102842.53;4953907;28;124393;-69
2021/03/17 10:44:32;;;;;;;1.45;0.60;;;;;;;15.96;42.06;102836.38;4951706;28;108420;-67
2021/03/17 10:47:06;;;;;;;6.95;1.13;;;;;;;15.97;42.13;102841.66;4954988;28;109068;-68
2021/03/17 10:49:35;;;;;;;3.72;0.70;;;;;;;16.12;41.64;102842.34;4972815;28;124822;-72
2021/03/17 10:52:02;;;;;;;4.18;0.85;;;;;;;16.11;41.95;102844.13;4991975;23;123808;-66
2021/03/17 10:54:39;;;;;;;3.10;0.75;;;;;;;16.05;42.07;102838.88;4973453;28;109565;-67
2021/03/17 10:57:06;;;;;;;3.63;0.65;;;;;;;15.97;42.07;102844.31;4976456;28;108927;-67
2021/03/17 10:59:35;;;;;;;2.42;0.45;;;;;;;16.05;42.01;102840.66;4975799;28;124165;-67
2021/03/17 11:02:28;;;;;;;3.67;0.40;;;;;;;16.23;41.61;102848.34;4965604;28;124321;-69
2021/03/17 11:05:21;;;;;;;4.45;0.90;;;;;;;16.27;41.50;102835.03;4966752;28;109111;-69
2021/03/17 11:07:59;;;;;;;2.90;0.57;;;;;;;16.23;41.64;102843.94;4979329;28;108903;-70
2021/03/17 11:10:45;;;;;;;1.58;0.70;;;;;;;16.23;41.83;102845.72;4952650;28;122015;-67
2021/03/17 11:13:17;;;;;;;2.13;0.60;;;;;;;16.35;41.52;102834.91;4945905;28;123610;-68
2021/03/17 11:15:55;;;;;;;4.38;0.70;;;;;;;16.33;41.55;102835.84;4965423;28;109399;-70
2021/03/17 11:18:26;;;;;;;9.10;0.80;;;;;;;16.20;41.96;102840.47;4955282;28;108764;-68
2021/03/17 11:20:55;;;;;;;3.72;0.55;;;;;;;16.21;42.11;102834.25;4960682;28;125169;-68
2021/03/17 11:23:24;;;;;;;4.18;0.65;;;;;;;16.33;41.79;102828.78;4963232;28;124235;-69
2021/03/17 11:25:52;;;;;;;2.40;0.55;;;;;;;16.33;41.58;102830.56;4953761;28;110496;-68
2021/03/17 11:28:20;;;;;;;2.95;0.73;;;;;;;16.41;41.21;102833.94;4954138;28;110188;-67
2021/03/17 11:30:55;;;;;;;3.50;1.35;;;;;;;16.37;41.21;102834.88;4958281;28;123947;-68
2021/03/17 11:33:23;;;;;;;5.82;0.80;;;;;;;16.41;41.20;102840.09;4962723;28;126705;-68
2021/03/17 11:35:51;;;;;;;3.83;0.75;;;;;;;16.45;41.28;102833.88;4967286;28;109177;-67
2021/03/17 11:38:18;;;;;;;4.38;0.52;;;;;;;16.32;41.47;102828.81;4960644;28;109262;-70
2021/03/17 11:40:46;;;;;;;2.03;0.70;;;;;;;16.27;41.58;102835.03;4946656;28;125532;-68
2021/03/17 11:43:19;;;;;;;7.00;0.70;;;;;;;16.29;41.68;102835.88;4967584;28;123279;-67
2021/03/17 11:45:48;;;;;;;4.67;0.50;;;;;;;16.36;41.46;102827.84;4953135;28;109630;-68
2021/03/17 11:48:14;;;;;;;1.90;0.50;;;;;;;16.20;41.85;102829.88;4962834;28;108855;-67